Time;durP1;ratioP1;P1;durP2;ratioP2;P2;SDS_P1;SDS_P2;PMS_P1;PMS_P2;Temp;Humidity;BMP_temperature;BMP_pressure;BME280_temperature;BME280_humidity;BME280_pressure;Samples;Min_cycle;Max_cycle;Signal;HPM_P1;HPM_P2
2021/08/18 00:00:46;;;;;;;24.53;16.47;;;;;;;;;;5053582;28;20459;-79
2021/08/18 00:03:12;;;;;;;24.97;17.67;;;;;;;;;;5054026;28;20403;-79
2021/08/18 00:05:38;;;;;;;24.10;16.90;;;;;;;;;;5054193;28;20436;-79
2021/08/18 00:08:08;;;;;;;33.67;17.90;;;;;;;;;;5054110;28;20456;-79
2021/08/18 00:10:34;;;;;;;25.50;16.40;;;;;;;;;;5054531;28;20408;-79
2021/08/18 00:13:00;;;;;;;26.63;17.47;;;;;;;;;;5053779;28;20515;-79
2021/08/18 00:15:27;;;;;;;29.43;18.23;;;;;;;;;;5036562;28;20862;-79
2021/08/18 00:17:56;;;;;;;27.00;17.73;;;;;;;;;;5036221;28;20412;-79
2021/08/18 00:20:22;;;;;;;30.03;19.57;;;;;;;;;;5054002;28;20777;-79
2021/08/18 00:22:48;;;;;;;24.53;17.87;;;;;;;;;;5053485;28;20503;-80
2021/08/18 00:25:14;;;;;;;31.93;16.93;;;;;;;;;;5053782;28;20510;-79
2021/08/18 00:27:40;;;;;;;25.63;18.60;;;;;;;;;;5054050;28;20458;-79
2021/08/18 00:30:06;;;;;;;21.83;16.90;;;;;;;;;;5054055;28;20412;-79
2021/08/18 00:32:32;;;;;;;24.73;18.00;;;;;;;;;;5053797;28;20475;-79
2021/08/18 00:34:58;;;;;;;24.93;18.50;;;;;;;;;;5053337;28;20459;-79
2021/08/18 00:37:24;;;;;;;27.23;17.53;;;;;;;;;;5053720;28;20639;-79
2021/08/18 00:39:50;;;;;;;26.10;18.40;;;;;;;;;;5053872;28;20408;-80
2021/08/18 00:42:18;;;;;;;22.03;13.77;;;;;;;;;;5036022;28;20416;-79
2021/08/18 00:45:07;;;;;;;23.60;15.87;;;;;;;;;;5054267;23;20440;-78
2021/08/18 00:47:45;;;;;;;20.53;15.07;;;;;;;;;;5013860;28;20422;-78
2021/08/18 00:50:12;;;;;;;23.20;17.07;;;;;;;;;;5013776;28;20426;-79
2021/08/18 00:53:02;;;;;;;22.57;16.57;;;;;;;;;;5013606;28;20544;-79
2021/08/18 00:55:30;;;;;;;22.17;17.07;;;;;;;;;;5013573;28;20475;-79
2021/08/18 00:58:04;;;;;;;23.63;16.33;;;;;;;;;;4995960;28;20417;-78
2021/08/18 01:00:40;;;;;;;;;;;;;;;;;;;;;
2021/08/18 01:03:07;;;;;;;26.83;17.73;;;;;;;;;;5013456;28;20417;-78
2021/08/18 01:05:35;;;;;;;24.60;17.57;;;;;;;;;;4996043;28;20442;-79
2021/08/18 01:08:02;;;;;;;26.00;19.13;;;;;;;;;;5013540;28;20445;-78
2021/08/18 01:10:30;;;;;;;22.57;18.27;;;;;;;;;;4995926;28;20751;-79
2021/08/18 01:12:56;;;;;;;26.53;18.30;;;;;;;;;;5013260;28;20438;-79
2021/08/18 01:15:24;;;;;;;23.67;16.60;;;;;;;;;;5013377;28;20432;-79
2021/08/18 01:17:51;;;;;;;23.23;17.93;;;;;;;;;;5013465;28;20414;-80
2021/08/18 01:20:18;;;;;;;26.37;20.27;;;;;;;;;;5013367;28;20409;-79
2021/08/18 01:22:46;;;;;;;24.97;18.43;;;;;;;;;;5013012;28;20883;-80
2021/08/18 01:25:12;;;;;;;32.80;21.47;;;;;;;;;;5013099;28;20426;-79
2021/08/18 01:27:47;;;;;;;27.23;19.20;;;;;;;;;;5013399;28;20421;-79
2021/08/18 01:30:14;;;;;;;27.20;20.33;;;;;;;;;;5013557;28;20775;-80
2021/08/18 01:32:57;;;;;;;30.97;20.23;;;;;;;;;;5013182;28;20414;-80
2021/08/18 01:35:24;;;;;;;26.67;20.10;;;;;;;;;;5013063;28;20910;-80
2021/08/18 01:37:51;;;;;;;27.63;18.70;;;;;;;;;;5013270;28;20540;-80
2021/08/18 01:40:20;;;;;;;32.50;20.60;;;;;;;;;;5013196;28;20433;-79
2021/08/18 01:42:47;;;;;;;31.23;21.27;;;;;;;;;;5013142;28;20410;-80
2021/08/18 01:45:19;;;;;;;28.37;20.00;;;;;;;;;;5012977;28;20828;-79
2021/08/18 01:47:45;;;;;;;27.10;21.10;;;;;;;;;;5012983;28;20768;-79
2021/08/18 01:50:11;;;;;;;31.63;21.13;;;;;;;;;;5013167;28;20436;-80
2021/08/18 01:52:37;;;;;;;29.63;21.23;;;;;;;;;;5012993;28;20388;-80
2021/08/18 01:55:04;;;;;;;29.73;20.60;;;;;;;;;;5012662;28;20433;-79
2021/08/18 01:57:30;;;;;;;30.80;20.30;;;;;;;;;;5012863;28;20384;-79
2021/08/18 01:59:56;;;;;;;27.37;20.40;;;;;;;;;;5012974;28;20416;-80
2021/08/18 02:02:22;;;;;;;30.70;21.80;;;;;;;;;;5012988;28;20414;-80
2021/08/18 02:04:48;;;;;;;28.90;20.20;;;;;;;;;;5012631;28;20940;-79
2021/08/18 02:07:14;;;;;;;33.90;22.10;;;;;;;;;;5013076;28;20418;-79
2021/08/18 02:09:40;;;;;;;28.10;20.77;;;;;;;;;;5012753;28;20469;-79
2021/08/18 02:12:06;;;;;;;29.50;21.37;;;;;;;;;;5012946;28;20444;-78
2021/08/18 02:14:32;;;;;;;31.17;21.10;;;;;;;;;;5012580;28;20410;-78
2021/08/18 02:16:58;;;;;;;27.40;21.07;;;;;;;;;;5013111;28;20405;-78
2021/08/18 02:19:24;;;;;;;36.03;20.70;;;;;;;;;;5012819;28;20414;-78
2021/08/18 02:21:50;;;;;;;30.23;21.03;;;;;;;;;;5012873;28;20480;-78
2021/08/18 02:24:16;;;;;;;28.70;20.80;;;;;;;;;;5013748;28;20420;-78
2021/08/18 02:26:42;;;;;;;27.70;20.07;;;;;;;;;;5016425;28;20442;-78
2021/08/18 02:29:10;;;;;;;28.80;19.53;;;;;;;;;;5016441;28;21029;-79
2021/08/18 02:31:37;;;;;;;28.23;19.27;;;;;;;;;;5016369;28;20449;-80
2021/08/18 02:34:03;;;;;;;29.83;20.50;;;;;;;;;;5015944;28;20425;-79
2021/08/18 02:36:29;;;;;;;31.10;20.40;;;;;;;;;;5016131;28;20820;-80
2021/08/18 02:38:55;;;;;;;30.70;20.70;;;;;;;;;;5016219;28;20417;-79
2021/08/18 02:41:21;;;;;;;29.43;19.37;;;;;;;;;;5016263;28;20456;-79
2021/08/18 02:43:47;;;;;;;23.77;18.20;;;;;;;;;;5015794;28;20425;-80
2021/08/18 02:46:13;;;;;;;27.17;19.73;;;;;;;;;;5015776;28;20449;-79
2021/08/18 02:48:39;;;;;;;32.80;19.70;;;;;;;;;;5016021;28;20583;-79
2021/08/18 02:51:04;;;;;;;23.70;18.30;;;;;;;;;;5015955;28;20891;-79
2021/08/18 02:53:33;;;;;;;23.00;18.47;;;;;;;;;;5015503;28;20410;-79
2021/08/18 02:55:59;;;;;;;25.87;18.23;;;;;;;;;;5015521;28;20525;-80
2021/08/18 02:58:25;;;;;;;26.40;18.10;;;;;;;;;;5015623;28;20511;-79
2021/08/18 03:00:51;;;;;;;23.40;17.50;;;;;;;;;;5015769;28;20414;-79
2021/08/18 03:03:17;;;;;;;25.53;18.40;;;;;;;;;;5015441;28;20441;-80
2021/08/18 03:05:43;;;;;;;25.50;17.50;;;;;;;;;;5015818;28;20440;-80
2021/08/18 03:08:09;;;;;;;22.50;16.83;;;;;;;;;;5015330;28;20822;-80
2021/08/18 03:10:35;;;;;;;26.30;17.80;;;;;;;;;;5015728;28;20415;-80
2021/08/18 03:13:01;;;;;;;24.33;17.13;;;;;;;;;;4997911;28;20417;-79
2021/08/18 03:15:27;;;;;;;24.67;18.67;;;;;;;;;;5015580;28;20422;-79
2021/08/18 03:17:53;;;;;;;24.80;17.30;;;;;;;;;;5015455;28;20414;-79
2021/08/18 03:20:19;;;;;;;23.60;17.20;;;;;;;;;;5015512;28;20410;-79
2021/08/18 03:22:45;;;;;;;24.13;17.50;;;;;;;;;;4997572;28;20445;-79
2021/08/18 03:25:11;;;;;;;20.43;16.13;;;;;;;;;;5015512;28;20425;-80
2021/08/18 03:27:38;;;;;;;21.90;16.90;;;;;;;;;;5015350;28;20511;-79
2021/08/18 03:30:05;;;;;;;21.30;15.67;;;;;;;;;;4997666;28;20448;-80
2021/08/18 03:32:31;;;;;;;21.77;16.00;;;;;;;;;;4997466;28;20418;-79
2021/08/18 03:34:57;;;;;;;22.10;15.60;;;;;;;;;;5014491;28;20426;-79
2021/08/18 03:37:23;;;;;;;22.60;16.03;;;;;;;;;;5014809;28;20421;-79
2021/08/18 03:39:49;;;;;;;18.53;15.07;;;;;;;;;;5015165;28;20413;-79
2021/08/18 03:42:15;;;;;;;20.57;16.50;;;;;;;;;;5014856;28;20512;-82
2021/08/18 03:44:41;;;;;;;20.17;14.83;;;;;;;;;;5014454;28;20480;-81
2021/08/18 03:47:07;;;;;;;17.57;13.90;;;;;;;;;;5015001;28;20497;-79
2021/08/18 03:49:33;;;;;;;17.60;13.00;;;;;;;;;;5014924;28;20608;-80
2021/08/18 03:51:59;;;;;;;14.23;11.40;;;;;;;;;;5014829;28;20441;-80
2021/08/18 03:54:26;;;;;;;13.70;10.37;;;;;;;;;;5014280;28;20418;-79
2021/08/18 03:56:52;;;;;;;15.80;11.80;;;;;;;;;;5014854;28;20416;-79
2021/08/18 03:59:18;;;;;;;12.60;11.00;;;;;;;;;;5014665;28;20508;-80
2021/08/18 04:01:44;;;;;;;16.87;10.83;;;;;;;;;;5014673;28;20420;-79
2021/08/18 04:04:10;;;;;;;11.60;10.17;;;;;;;;;;4980690;28;20840;-80
2021/08/18 04:06:36;;;;;;;12.67;10.30;;;;;;;;;;4996789;28;20942;-79
2021/08/18 04:09:02;;;;;;;12.17;10.30;;;;;;;;;;5014390;28;20548;-80
2021/08/18 04:11:28;;;;;;;10.37;8.57;;;;;;;;;;5014341;28;20504;-80
2021/08/18 04:13:54;;;;;;;9.63;8.47;;;;;;;;;;5014184;28;20962;-80
2021/08/18 04:16:20;;;;;;;12.77;8.70;;;;;;;;;;5014366;28;20521;-80
2021/08/18 04:18:46;;;;;;;8.90;8.00;;;;;;;;;;5014177;28;20976;-79
2021/08/18 04:21:13;;;;;;;9.10;7.30;;;;;;;;;;5014541;28;20425;-80
2021/08/18 04:23:39;;;;;;;9.30;8.40;;;;;;;;;;5013850;28;20425;-80
2021/08/18 04:26:05;;;;;;;8.67;7.80;;;;;;;;;;4996481;28;20954;-80
2021/08/18 04:28:31;;;;;;;9.40;8.40;;;;;;;;;;4996110;28;20468;-81
2021/08/18 04:30:57;;;;;;;12.67;8.07;;;;;;;;;;5013986;28;20887;-81
2021/08/18 04:33:23;;;;;;;10.53;8.60;;;;;;;;;;5013746;28;20409;-80
2021/08/18 04:35:49;;;;;;;11.83;9.00;;;;;;;;;;5013812;28;20926;-81
2021/08/18 04:38:15;;;;;;;12.27;9.87;;;;;;;;;;5013969;28;20468;-81
2021/08/18 04:40:41;;;;;;;11.63;9.33;;;;;;;;;;4996451;28;20831;-81
2021/08/18 04:43:07;;;;;;;13.30;10.93;;;;;;;;;;5013537;28;20389;-81
2021/08/18 04:45:36;;;;;;;13.00;9.90;;;;;;;;;;5013659;28;20469;-82
2021/08/18 04:48:01;;;;;;;14.13;10.47;;;;;;;;;;4996620;28;20891;-80
2021/08/18 04:50:28;;;;;;;16.90;12.30;;;;;;;;;;5013771;28;20420;-80
2021/08/18 04:52:54;;;;;;;18.07;12.57;;;;;;;;;;5013297;28;20469;-80
2021/08/18 04:55:20;;;;;;;16.20;12.80;;;;;;;;;;5013583;28;20512;-80
2021/08/18 04:57:46;;;;;;;18.80;14.07;;;;;;;;;;5013753;28;20389;-81
2021/08/18 05:00:12;;;;;;;23.73;14.27;;;;;;;;;;5013479;28;20433;-79
2021/08/18 05:02:39;;;;;;;23.23;18.10;;;;;;;;;;5013656;28;20437;-81
2021/08/18 05:05:05;;;;;;;27.77;18.73;;;;;;;;;;5240343;23;20446;-80
2021/08/18 05:07:34;;;;;;;25.53;17.50;;;;;;;;;;4976454;28;20494;-81
2021/08/18 05:10:00;;;;;;;31.23;18.30;;;;;;;;;;4993764;28;20534;-81
2021/08/18 05:12:26;;;;;;;29.00;19.47;;;;;;;;;;4993870;28;20396;-80
2021/08/18 05:14:52;;;;;;;33.83;23.00;;;;;;;;;;4993735;28;20513;-79
2021/08/18 05:17:21;;;;;;;31.73;21.43;;;;;;;;;;4993857;28;20395;-82
2021/08/18 05:19:47;;;;;;;37.70;23.20;;;;;;;;;;4993759;28;20458;-82
2021/08/18 05:22:14;;;;;;;36.27;22.17;;;;;;;;;;4993793;28;20415;-80
2021/08/18 05:24:40;;;;;;;32.40;22.93;;;;;;;;;;4993470;28;20871;-81
2021/08/18 05:27:06;;;;;;;34.60;24.50;;;;;;;;;;4993729;28;20822;-81
2021/08/18 05:29:32;;;;;;;39.60;25.20;;;;;;;;;;4993597;28;20557;-81
2021/08/18 05:31:58;;;;;;;40.10;24.63;;;;;;;;;;4993701;28;20509;-80
2021/08/18 05:34:24;;;;;;;34.80;24.50;;;;;;;;;;4993104;28;20878;-84
2021/08/18 05:36:50;;;;;;;41.03;27.40;;;;;;;;;;4960239;28;20533;-82
2021/08/18 05:39:16;;;;;;;43.10;26.70;;;;;;;;;;4993454;28;20490;-82
2021/08/18 05:41:42;;;;;;;36.17;26.00;;;;;;;;;;4993589;28;20414;-78
2021/08/18 05:44:08;;;;;;;37.67;25.37;;;;;;;;;;4975956;28;20986;-81
2021/08/18 05:46:34;;;;;;;35.17;25.10;;;;;;;;;;4993554;28;20430;-80
2021/08/18 05:49:00;;;;;;;36.17;26.77;;;;;;;;;;4960133;28;20493;-80
2021/08/18 05:51:26;;;;;;;38.67;26.93;;;;;;;;;;4976212;28;20502;-79
2021/08/18 05:53:52;;;;;;;37.60;26.77;;;;;;;;;;4975845;28;20442;-80
2021/08/18 05:56:18;;;;;;;38.40;26.77;;;;;;;;;;4993410;28;20831;-81
2021/08/18 05:58:44;;;;;;;38.67;26.50;;;;;;;;;;4993762;28;20430;-80
2021/08/18 06:01:10;;;;;;;40.83;27.10;;;;;;;;;;4997138;28;20414;-80
2021/08/18 06:03:36;;;;;;;37.40;26.00;;;;;;;;;;4979764;28;20549;-79
2021/08/18 06:06:02;;;;;;;33.23;25.20;;;;;;;;;;4979750;28;20466;-78
2021/08/18 06:08:28;;;;;;;35.07;25.53;;;;;;;;;;4997041;28;20462;-80
2021/08/18 06:10:54;;;;;;;37.17;26.83;;;;;;;;;;4997180;28;20413;-80
2021/08/18 06:13:22;;;;;;;34.73;25.53;;;;;;;;;;4996740;28;20963;-80
2021/08/18 06:15:48;;;;;;;39.70;26.00;;;;;;;;;;4997089;28;20427;-81
2021/08/18 06:18:14;;;;;;;37.03;25.27;;;;;;;;;;4996964;28;21130;-80
2021/08/18 06:20:43;;;;;;;33.47;24.10;;;;;;;;;;4979963;28;20423;-80
2021/08/18 06:23:09;;;;;;;33.43;22.63;;;;;;;;;;4979408;28;20441;-80
2021/08/18 06:25:35;;;;;;;30.83;21.57;;;;;;;;;;4979580;28;20529;-80
2021/08/18 06:28:01;;;;;;;28.40;19.57;;;;;;;;;;4963495;28;20485;-80
2021/08/18 06:30:27;;;;;;;25.93;16.83;;;;;;;;;;4979187;28;20419;-80
2021/08/18 06:32:56;;;;;;;19.10;15.63;;;;;;;;;;4979392;28;20764;-80
2021/08/18 06:35:22;;;;;;;17.87;13.63;;;;;;;;;;4979299;28;20426;-80
2021/08/18 06:37:48;;;;;;;18.70;12.80;;;;;;;;;;4996394;28;20728;-81
2021/08/18 06:40:14;;;;;;;18.60;13.17;;;;;;;;;;4996695;28;20411;-81
2021/08/18 06:42:41;;;;;;;16.73;13.73;;;;;;;;;;4979107;28;20411;-81
2021/08/18 06:45:08;;;;;;;18.93;14.20;;;;;;;;;;4996123;28;20997;-81
2021/08/18 06:47:38;;;;;;;19.17;15.20;;;;;;;;;;4996408;28;20500;-82
2021/08/18 06:50:05;;;;;;;18.13;14.67;;;;;;;;;;4978884;28;20451;-82
2021/08/18 06:52:31;;;;;;;23.03;15.87;;;;;;;;;;4996404;28;20407;-82
2021/08/18 07:00:32;;;;;;;22.80;17.90;;;;;;;;;;4935798;29;20500;-82
2021/08/18 07:03:07;;;;;;;31.77;21.63;;;;;;;;;;4935994;29;20830;-82
2021/08/18 07:05:41;;;;;;;23.87;19.73;;;;;;;;;;4994773;28;20441;-82
2021/08/18 07:08:13;;;;;;;26.53;22.57;;;;;;;;;;4994597;28;20423;-82
2021/08/18 07:13:52;;;;;;;30.10;21.57;;;;;;;;;;4974848;28;20893;-82
2021/08/18 07:16:35;;;;;;;33.03;24.47;;;;;;;;;;4995520;28;20911;-82
2021/08/18 07:19:36;;;;;;;32.97;22.00;;;;;;;;;;4995822;28;20886;-82
2021/08/18 07:37:04;;;;;;;25.50;20.37;;;;;;;;;;4916241;29;20476;-82
2021/08/18 07:40:01;;;;;;;;;;;;;;;;;;;;;
2021/08/18 07:48:33;;;;;;;21.27;16.83;;;;;;;;;;4929892;28;20448;-82
2021/08/18 07:51:41;;;;;;;;;;;;;;;;;;;;;
2021/08/18 07:54:33;;;;;;;;;;;;;;;;;;;;;
2021/08/18 08:06:44;;;;;;;16.30;13.90;;;;;;;;;;4915481;29;20522;-81
2021/08/18 08:09:22;;;;;;;18.13;15.50;;;;;;;;;;4931170;28;20463;-80
2021/08/18 08:11:50;;;;;;;17.97;12.80;;;;;;;;;;4993663;28;20473;-80
2021/08/18 08:14:25;;;;;;;18.87;13.07;;;;;;;;;;4994419;28;20419;-79
2021/08/18 08:19:54;;;;;;;14.60;12.90;;;;;;;;;;4994811;28;20505;-79
2021/08/18 08:22:20;;;;;;;12.23;10.73;;;;;;;;;;4994204;28;20411;-78
2021/08/18 08:24:46;;;;;;;11.03;9.37;;;;;;;;;;4994232;28;20441;-79
2021/08/18 08:27:42;;;;;;;;;;;;;;;;;;;;;
2021/08/18 09:24:11;;;;;;;19.57;15.47;;;;;;;;;;5008371;28;20421;-81
2021/08/18 09:36:25;;;;;;;16.97;15.17;;;;;;;;;;4988883;28;20509;-81
2021/08/18 09:42:26;;;;;;;14.77;13.33;;;;;;;;;;4919907;29;20440;-81
2021/08/18 11:57:13;;;;;;;8.10;7.03;;;;;;;;;;4992989;28;20474;-83
2021/08/18 12:23:02;;;;;;;;;;;;;;;;;;;;;
2021/08/18 12:38:06;;;;;;;3.87;3.30;;;;;;;;;;5034233;28;20372;-83
2021/08/18 12:53:56;;;;;;;;;;;;;;;;;;;;;
2021/08/18 13:00:17;;;;;;;4.10;3.70;;;;;;;;;;4940399;28;20416;-84
2021/08/18 13:02:49;;;;;;;8.23;4.63;;;;;;;;;;5012279;28;20439;-84
2021/08/18 13:19:55;;;;;;;7.40;6.60;;;;;;;;;;4954093;29;20376;-84
2021/08/18 13:26:07;;;;;;;7.80;6.83;;;;;;;;;;5006569;23;20524;-84
2021/08/18 13:34:38;;;;;;;9.70;7.63;;;;;;;;;;5014315;28;20897;-84
2021/08/18 13:40:24;;;;;;;8.53;7.73;;;;;;;;;;5014036;28;20484;-83
2021/08/18 13:46:49;;;;;;;;;;;;;;;;;;;;;
2021/08/18 14:19:22;;;;;;;9.60;7.80;;;;;;;;;;4842675;29;20421;-82
2021/08/18 14:21:50;;;;;;;9.23;7.80;;;;;;;;;;4899587;29;20424;-82
2021/08/18 14:24:40;;;;;;;9.80;8.07;;;;;;;;;;4933655;29;20485;-85
2021/08/18 14:27:09;;;;;;;10.07;8.40;;;;;;;;;;4956592;29;20376;-83
2021/08/18 14:29:52;;;;;;;8.87;7.63;;;;;;;;;;4956815;29;20478;-83
2021/08/18 14:32:58;;;;;;;10.73;8.10;;;;;;;;;;4956248;29;20482;-83
2021/08/18 14:35:34;;;;;;;13.13;9.80;;;;;;;;;;4956596;28;20435;-83
2021/08/18 14:38:21;;;;;;;13.10;7.93;;;;;;;;;;4999104;28;20409;-83
2021/08/18 14:40:46;;;;;;;8.87;7.97;;;;;;;;;;5016438;28;20756;-83
2021/08/18 14:43:39;;;;;;;10.70;9.60;;;;;;;;;;5016128;28;20460;-84
2021/08/18 14:46:41;;;;;;;10.10;9.07;;;;;;;;;;5008690;28;20445;-83
2021/08/18 14:49:39;;;;;;;10.60;8.40;;;;;;;;;;5016251;28;20423;-84
2021/08/18 15:05:25;;;;;;;10.17;8.00;;;;;;;;;;5115150;23;20471;-82
2021/08/18 15:17:59;;;;;;;;;;;;;;;;;;;;;
2021/08/18 15:23:26;;;;;;;6.60;5.77;;;;;;;;;;4976231;28;20514;-84
2021/08/18 15:26:06;;;;;;;8.13;5.97;;;;;;;;;;4975220;28;20472;-83
2021/08/18 15:43:44;;;;;;;5.67;5.00;;;;;;;;;;4995523;28;20390;-84
2021/08/18 15:46:40;;;;;;;6.87;4.77;;;;;;;;;;4995595;28;20442;-84
2021/08/18 15:52:43;;;;;;;7.40;4.90;;;;;;;;;;4995664;28;20369;-84
2021/08/18 15:55:35;;;;;;;5.73;3.93;;;;;;;;;;4994978;28;20507;-85
2021/08/18 15:58:04;;;;;;;7.30;4.30;;;;;;;;;;4992144;28;20400;-83
2021/08/18 16:00:30;;;;;;;5.30;4.40;;;;;;;;;;4995785;28;20419;-81
2021/08/18 16:02:56;;;;;;;6.47;4.53;;;;;;;;;;4977239;28;20461;-85
2021/08/18 16:05:22;;;;;;;5.60;4.43;;;;;;;;;;4994981;28;20431;-82
2021/08/18 16:07:48;;;;;;;7.93;5.47;;;;;;;;;;4994844;28;20397;-83
2021/08/18 16:10:14;;;;;;;4.87;4.37;;;;;;;;;;4994705;28;20462;-85
2021/08/18 16:12:41;;;;;;;5.00;4.50;;;;;;;;;;4994957;28;20410;-86
2021/08/18 16:15:10;;;;;;;5.10;4.60;;;;;;;;;;4994704;28;20441;-85
2021/08/18 16:17:36;;;;;;;4.80;4.40;;;;;;;;;;4994780;28;20929;-84
2021/08/18 16:20:03;;;;;;;8.33;5.33;;;;;;;;;;4994629;28;20414;-85
2021/08/18 16:22:29;;;;;;;5.00;4.17;;;;;;;;;;4994634;28;20469;-84
2021/08/18 16:24:55;;;;;;;7.03;6.33;;;;;;;;;;4994493;28;20894;-84
2021/08/18 16:27:22;;;;;;;6.07;5.47;;;;;;;;;;4977332;28;20505;-84
2021/08/18 16:29:49;;;;;;;8.83;5.50;;;;;;;;;;4961330;28;20505;-83
2021/08/18 16:32:15;;;;;;;6.70;4.90;;;;;;;;;;4994470;28;20377;-85
2021/08/18 16:34:41;;;;;;;7.73;5.40;;;;;;;;;;4994116;28;20516;-85
2021/08/18 16:37:08;;;;;;;5.33;4.83;;;;;;;;;;4994649;28;20412;-84
2021/08/18 16:39:34;;;;;;;7.53;4.20;;;;;;;;;;4994317;28;20385;-84
2021/08/18 16:42:00;;;;;;;5.80;5.17;;;;;;;;;;4976699;28;20426;-84
2021/08/18 16:44:27;;;;;;;4.63;4.23;;;;;;;;;;4993415;28;20962;-84
2021/08/18 16:46:54;;;;;;;5.97;4.50;;;;;;;;;;4994242;28;20470;-84
2021/08/18 16:49:22;;;;;;;4.90;4.40;;;;;;;;;;4993993;28;20481;-85
2021/08/18 16:51:47;;;;;;;7.93;4.93;;;;;;;;;;4976586;28;20407;-86
2021/08/18 16:54:16;;;;;;;8.40;5.10;;;;;;;;;;4993680;28;20440;-84
2021/08/18 16:56:42;;;;;;;5.37;4.87;;;;;;;;;;4994043;28;20497;-84
2021/08/18 16:59:08;;;;;;;4.33;3.93;;;;;;;;;;4994032;28;20393;-84
2021/08/18 17:01:34;;;;;;;5.37;4.83;;;;;;;;;;4994017;28;20418;-85
2021/08/18 17:04:00;;;;;;;4.70;4.30;;;;;;;;;;4993691;28;20426;-85
2021/08/18 17:06:26;;;;;;;4.90;4.50;;;;;;;;;;4994106;28;20475;-84
2021/08/18 17:08:52;;;;;;;5.17;4.67;;;;;;;;;;4993658;28;20462;-85
2021/08/18 17:11:18;;;;;;;5.23;4.73;;;;;;;;;;4993678;28;20413;-84
2021/08/18 17:13:44;;;;;;;5.60;4.90;;;;;;;;;;4993549;28;20381;-84
2021/08/18 17:16:10;;;;;;;5.60;5.10;;;;;;;;;;4993753;28;20927;-84
2021/08/18 17:18:36;;;;;;;5.20;4.70;;;;;;;;;;4993673;28;20444;-84
2021/08/18 17:21:03;;;;;;;6.63;4.80;;;;;;;;;;4993642;28;20919;-85
2021/08/18 17:23:31;;;;;;;10.00;5.10;;;;;;;;;;4993450;28;20931;-83
2021/08/18 17:25:57;;;;;;;9.13;5.47;;;;;;;;;;4992560;28;20427;-84
2021/08/18 17:28:23;;;;;;;6.43;5.57;;;;;;;;;;4992313;28;20967;-84
2021/08/18 17:30:49;;;;;;;8.80;5.83;;;;;;;;;;4992414;28;20429;-84
2021/08/18 17:33:15;;;;;;;6.07;5.50;;;;;;;;;;4993451;28;20442;-83
2021/08/18 17:35:41;;;;;;;5.63;5.13;;;;;;;;;;4993649;28;20439;-84
2021/08/18 17:38:08;;;;;;;6.73;5.57;;;;;;;;;;4992269;28;20430;-84
2021/08/18 17:40:34;;;;;;;6.80;5.90;;;;;;;;;;4992577;28;20409;-85
2021/08/18 17:43:00;;;;;;;8.17;5.50;;;;;;;;;;4993406;28;20397;-83
2021/08/18 17:45:26;;;;;;;6.47;5.87;;;;;;;;;;4976051;28;20491;-84
2021/08/18 17:47:52;;;;;;;5.83;5.23;;;;;;;;;;4993445;28;20475;-84
2021/08/18 17:50:18;;;;;;;7.13;5.37;;;;;;;;;;4993518;28;20556;-85
2021/08/18 17:52:44;;;;;;;7.17;6.20;;;;;;;;;;4993066;28;20406;-85
2021/08/18 17:55:11;;;;;;;8.20;6.77;;;;;;;;;;4977163;28;20439;-84
2021/08/18 17:57:36;;;;;;;12.17;6.00;;;;;;;;;;4997501;28;20406;-85
2021/08/18 18:00:05;;;;;;;6.53;5.93;;;;;;;;;;4979979;28;20417;-85
2021/08/18 18:02:31;;;;;;;16.50;6.33;;;;;;;;;;4997155;28;20389;-86
2021/08/18 18:04:57;;;;;;;6.87;6.20;;;;;;;;;;4996809;28;20416;-86
2021/08/18 18:07:24;;;;;;;9.33;5.00;;;;;;;;;;4984685;28;20429;-86
2021/08/18 18:09:50;;;;;;;9.20;6.60;;;;;;;;;;4997334;28;20481;-85
2021/08/18 18:12:16;;;;;;;6.87;5.97;;;;;;;;;;4997188;28;20443;-84
2021/08/18 18:14:43;;;;;;;6.87;5.27;;;;;;;;;;4996872;28;20473;-84
2021/08/18 18:17:09;;;;;;;7.83;6.73;;;;;;;;;;4997126;28;20415;-86
2021/08/18 18:19:35;;;;;;;10.13;6.17;;;;;;;;;;4995907;28;20473;-87
2021/08/18 18:22:01;;;;;;;10.60;6.50;;;;;;;;;;4997228;28;20410;-85
2021/08/18 18:24:27;;;;;;;6.53;5.80;;;;;;;;;;4996654;28;20789;-85
2021/08/18 18:26:53;;;;;;;9.07;6.37;;;;;;;;;;4996905;28;20437;-86
2021/08/18 18:29:20;;;;;;;7.30;5.83;;;;;;;;;;4995573;28;20485;-86
2021/08/18 18:31:48;;;;;;;7.00;6.10;;;;;;;;;;4996896;28;20404;-86
2021/08/18 18:34:14;;;;;;;11.10;7.07;;;;;;;;;;4996564;28;20417;-86
2021/08/18 18:36:40;;;;;;;7.90;6.70;;;;;;;;;;4995413;28;20451;-86
2021/08/18 18:39:06;;;;;;;9.43;7.07;;;;;;;;;;4995484;28;20468;-85
2021/08/18 18:41:33;;;;;;;9.47;6.93;;;;;;;;;;4996736;28;20450;-86
2021/08/18 18:44:03;;;;;;;8.53;6.30;;;;;;;;;;4996338;28;20393;-85
2021/08/18 18:46:29;;;;;;;7.30;6.23;;;;;;;;;;4995255;28;20413;-85
2021/08/18 18:48:55;;;;;;;8.90;6.60;;;;;;;;;;4995163;28;20462;-83
2021/08/18 18:51:21;;;;;;;7.77;5.90;;;;;;;;;;4995298;28;20415;-87
2021/08/18 18:53:47;;;;;;;9.37;7.03;;;;;;;;;;4994922;28;20418;-83
2021/08/18 18:56:13;;;;;;;7.40;5.97;;;;;;;;;;4995049;28;20906;-84
2021/08/18 18:58:39;;;;;;;8.13;6.00;;;;;;;;;;4996161;28;20461;-84
2021/08/18 19:01:05;;;;;;;7.10;6.03;;;;;;;;;;4996194;28;20415;-84
2021/08/18 19:03:34;;;;;;;7.13;6.10;;;;;;;;;;4995986;28;20450;-84
2021/08/18 19:06:01;;;;;;;9.87;6.30;;;;;;;;;;4994811;28;20880;-85
2021/08/18 19:08:27;;;;;;;6.70;6.00;;;;;;;;;;4994715;28;20907;-84
2021/08/18 19:10:53;;;;;;;6.20;5.37;;;;;;;;;;4996131;28;20814;-83
2021/08/18 19:13:19;;;;;;;6.10;5.50;;;;;;;;;;4995748;28;20407;-84
2021/08/18 19:15:45;;;;;;;9.53;6.00;;;;;;;;;;4995897;28;20573;-84
2021/08/18 19:18:11;;;;;;;11.67;6.33;;;;;;;;;;4994679;28;20880;-86
2021/08/18 19:20:38;;;;;;;14.87;6.60;;;;;;;;;;4996242;28;20425;-86
2021/08/18 19:23:04;;;;;;;6.67;5.30;;;;;;;;;;4995873;28;20429;-86
2021/08/18 19:25:30;;;;;;;9.13;6.20;;;;;;;;;;4995818;28;20430;-85
2021/08/18 19:27:56;;;;;;;10.13;6.10;;;;;;;;;;4995858;28;20418;-85
2021/08/18 19:30:22;;;;;;;8.90;5.40;;;;;;;;;;4994414;28;20473;-85
2021/08/18 19:32:49;;;;;;;7.43;5.47;;;;;;;;;;4995352;28;20411;-85
2021/08/18 19:35:15;;;;;;;7.20;5.50;;;;;;;;;;4995515;28;20430;-86
2021/08/18 19:37:41;;;;;;;9.73;4.93;;;;;;;;;;4978318;28;20409;-85
2021/08/18 19:40:08;;;;;;;6.77;6.00;;;;;;;;;;4995710;28;20759;-85
2021/08/18 19:42:34;;;;;;;10.73;5.20;;;;;;;;;;4995536;28;20469;-85
2021/08/18 19:45:00;;;;;;;7.67;5.67;;;;;;;;;;4993989;28;20935;-85
2021/08/18 19:47:28;;;;;;;7.10;5.10;;;;;;;;;;4995352;28;20425;-85
2021/08/18 19:49:56;;;;;;;7.23;5.33;;;;;;;;;;4995476;28;20834;-85
2021/08/18 19:52:22;;;;;;;7.10;5.70;;;;;;;;;;4995618;28;20464;-85
2021/08/18 19:54:48;;;;;;;6.70;5.17;;;;;;;;;;4995029;28;20509;-86
2021/08/18 20:00:18;;;;;;;9.50;5.73;;;;;;;;;;4995106;28;20401;-86
2021/08/18 20:02:53;;;;;;;7.93;4.80;;;;;;;;;;4994780;28;20481;-87
2021/08/18 20:05:19;;;;;;;7.70;5.90;;;;;;;;;;4994988;28;20750;-85
2021/08/18 20:07:45;;;;;;;5.47;4.80;;;;;;;;;;4994844;28;20377;-87
2021/08/18 20:10:12;;;;;;;11.43;5.40;;;;;;;;;;4993669;28;20822;-87
2021/08/18 20:12:48;;;;;;;8.80;6.20;;;;;;;;;;4993674;28;20843;-87
2021/08/18 20:17:50;;;;;;;8.40;6.87;;;;;;;;;;5412100;23;20819;-87
2021/08/18 20:20:16;;;;;;;7.00;5.60;;;;;;;;;;5033841;28;20416;-87
2021/08/18 20:22:42;;;;;;;7.93;6.47;;;;;;;;;;5033553;28;20405;-85
2021/08/18 20:25:09;;;;;;;6.87;5.90;;;;;;;;;;5039594;28;20443;-86
2021/08/18 20:27:35;;;;;;;8.60;5.83;;;;;;;;;;5044875;28;20409;-84
2021/08/18 20:30:01;;;;;;;7.17;5.77;;;;;;;;;;5046925;28;21310;-87
2021/08/18 20:32:27;;;;;;;6.70;5.13;;;;;;;;;;5041301;28;20382;-85
2021/08/18 20:34:53;;;;;;;11.00;5.30;;;;;;;;;;5044228;28;20971;-84
2021/08/18 20:37:19;;;;;;;7.40;5.40;;;;;;;;;;5033571;28;20510;-85
2021/08/18 20:39:46;;;;;;;7.73;6.30;;;;;;;;;;5033634;28;20496;-85
2021/08/18 20:42:12;;;;;;;5.60;5.07;;;;;;;;;;5016049;28;20411;-84
2021/08/18 20:44:38;;;;;;;7.00;5.73;;;;;;;;;;5026731;28;20448;-85
2021/08/18 20:47:04;;;;;;;5.90;5.30;;;;;;;;;;5053582;28;20853;-85
2021/08/18 20:49:31;;;;;;;6.53;4.50;;;;;;;;;;5053703;28;20915;-85
2021/08/18 20:51:57;;;;;;;7.27;5.60;;;;;;;;;;5054182;28;20416;-83
2021/08/18 20:54:23;;;;;;;5.73;4.77;;;;;;;;;;5035192;28;20765;-86
2021/08/18 20:56:51;;;;;;;6.20;4.77;;;;;;;;;;5019351;28;20428;-84
2021/08/18 20:59:17;;;;;;;6.60;4.40;;;;;;;;;;5053642;28;20507;-83
2021/08/18 21:01:43;;;;;;;4.57;4.17;;;;;;;;;;5053253;28;20423;-82
2021/08/18 21:04:09;;;;;;;6.07;4.37;;;;;;;;;;5052883;28;20915;-84
2021/08/18 21:06:35;;;;;;;5.37;4.80;;;;;;;;;;5053258;28;20459;-85
2021/08/18 21:09:03;;;;;;;8.10;4.73;;;;;;;;;;5053266;28;20456;-83
2021/08/18 21:11:29;;;;;;;6.93;4.60;;;;;;;;;;5053321;28;20782;-84
2021/08/18 21:13:55;;;;;;;4.50;3.83;;;;;;;;;;5052987;28;20408;-82
2021/08/18 21:16:21;;;;;;;7.90;4.40;;;;;;;;;;5032521;28;20547;-84
2021/08/18 21:18:47;;;;;;;5.37;4.60;;;;;;;;;;5053121;28;20407;-85
2021/08/18 21:21:13;;;;;;;5.30;4.13;;;;;;;;;;5035369;28;20515;-87
2021/08/18 21:23:39;;;;;;;6.57;4.30;;;;;;;;;;5053208;28;20404;-87
2021/08/18 21:26:06;;;;;;;5.30;4.80;;;;;;;;;;5053138;28;20478;-85
2021/08/18 21:28:32;;;;;;;4.90;3.83;;;;;;;;;;5053047;28;20408;-85
2021/08/18 21:30:58;;;;;;;5.37;4.27;;;;;;;;;;5053305;28;20407;-85